Terminal Aerodrome Forecast
Issued by NWS

Current Version | Previous Version | Text Only | Print | Product List | Glossary Off
Versions: 1 2 3 4 5 6 7 8 9 10 11 12 13 14 15 16

000
FTUS41 KPBZ 232300
TAFMGW
TAF
KMGW 232326Z 2400/2424 16011G18KT 6SM -RA OVC060
     FM240300 17012G20KT 4SM -RA OVC015
      TEMPO 2404/2407 2SM -RA BR OVC008
     FM241000 18012KT P6SM OVC025
     FM241400 19016G34KT P6SM BKN050=

USA.gov is the U.S. government's official web portal to all federal, state and local government web resources and services.